Time;durP1;ratioP1;P1;durP2;ratioP2;P2;SDS_P1;SDS_P2;PMS_P1;PMS_P2;Temp;Humidity;BMP_temperature;BMP_pressure;BME280_temperature;BME280_humidity;BME280_pressure;Samples;Min_cycle;Max_cycle;Signal;HPM_P1;HPM_P2
2024/03/23 00:02:09;;;;;;;5.20;4.47;;;10.70;99.90;;;;;;4921382;29;20507;-87
2024/03/23 00:04:35;;;;;;;5.77;4.73;;;10.80;99.90;;;;;;4902935;29;20192;-87
2024/03/23 00:07:01;;;;;;;5.67;5.07;;;;;;;;;;4922060;29;20209;-86
2024/03/23 00:09:26;;;;;;;5.57;4.80;;;10.70;99.90;;;;;;4922486;29;20187;-87
2024/03/23 00:11:52;;;;;;;8.47;5.80;;;10.80;99.90;;;;;;4918382;29;20475;-86
2024/03/23 00:14:17;;;;;;;10.67;5.47;;;10.60;99.90;;;;;;4903011;29;20189;-87
2024/03/23 00:16:43;;;;;;;5.70;4.80;;;10.70;99.90;;;;;;4919458;29;20203;-86
2024/03/23 00:19:09;;;;;;;4.57;4.17;;;10.60;99.90;;;;;;4904501;29;20208;-85
2024/03/23 00:21:40;;;;;;;4.82;4.43;;;10.50;99.90;;;;;;4910801;29;20186;-87
2024/03/23 00:24:08;;;;;;;6.80;3.83;;;10.40;99.90;;;;;;4915610;29;20183;-86
2024/03/23 00:26:34;;;;;;;5.18;4.57;;;10.40;99.90;;;;;;4903274;29;20211;-87
2024/03/23 00:28:59;;;;;;;6.03;4.17;;;10.50;99.90;;;;;;4910888;29;20714;-87
2024/03/23 00:31:25;;;;;;;5.20;4.40;;;10.40;99.90;;;;;;4908984;29;20259;-84
2024/03/23 00:33:52;;;;;;;6.37;4.23;;;10.40;99.90;;;;;;4885168;29;20211;-86
2024/03/23 00:36:17;;;;;;;5.25;4.40;;;10.00;99.90;;;;;;4921393;29;20207;-86
2024/03/23 00:38:43;;;;;;;6.67;4.47;;;10.20;99.90;;;;;;4918337;29;20219;-86
2024/03/23 00:41:08;;;;;;;5.20;3.57;;;10.50;99.90;;;;;;4891907;29;20726;-86
2024/03/23 00:43:34;;;;;;;5.03;4.53;;;10.60;99.90;;;;;;4905608;29;20188;-86
2024/03/23 00:45:59;;;;;;;6.73;4.70;;;10.40;99.90;;;;;;4905821;29;20209;-86
2024/03/23 00:48:25;;;;;;;4.97;4.47;;;10.40;99.90;;;;;;4917278;29;20569;-86
2024/03/23 00:50:50;;;;;;;4.73;4.33;;;10.50;99.90;;;;;;4890718;29;20195;-85
2024/03/23 00:53:16;;;;;;;5.17;4.40;;;10.40;99.90;;;;;;4907468;29;20684;-86
2024/03/23 00:55:42;;;;;;;4.10;3.70;;;10.30;99.90;;;;;;4919310;29;20208;-85
2024/03/23 00:58:08;;;;;;;5.13;4.55;;;10.10;99.90;;;;;;4923831;29;20208;-86
2024/03/23 01:00:34;;;;;;;5.05;4.55;;;10.10;99.90;;;;;;4920603;29;20756;-86
2024/03/23 01:03:00;;;;;;;4.47;4.07;;;;;;;;;;4924189;29;20197;-85
2024/03/23 01:05:25;;;;;;;4.93;4.35;;;9.90;99.90;;;;;;4944178;29;20193;-85
2024/03/23 01:07:51;;;;;;;4.60;4.10;;;9.70;99.90;;;;;;4937733;29;20193;-86
2024/03/23 01:10:16;;;;;;;4.17;3.70;;;10.10;99.90;;;;;;4939283;28;20277;-86
2024/03/23 01:12:42;;;;;;;4.13;3.73;;;9.90;99.90;;;;;;4937621;29;20179;-86
2024/03/23 01:15:08;;;;;;;4.73;4.00;;;10.20;99.90;;;;;;4938153;28;20200;-86
2024/03/23 01:17:33;;;;;;;4.80;4.30;;;10.20;99.90;;;;;;4940122;29;20201;-86
2024/03/23 01:19:59;;;;;;;4.20;3.80;;;10.40;99.90;;;;;;4941078;28;20558;-86
2024/03/23 01:22:24;;;;;;;4.43;4.03;;;10.50;99.90;;;;;;4950512;28;20181;-86
2024/03/23 01:24:50;;;;;;;4.43;4.03;;;10.10;99.90;;;;;;4940235;28;20389;-85
2024/03/23 01:27:15;;;;;;;4.80;4.10;;;10.30;99.90;;;;;;4956093;28;20200;-85
2024/03/23 01:29:41;;;;;;;4.83;3.60;;;10.20;99.90;;;;;;4955812;28;20189;-86
2024/03/23 01:32:07;;;;;;;4.63;4.07;;;10.10;99.90;;;;;;4956293;28;20208;-86
2024/03/23 01:34:32;;;;;;;4.43;4.03;;;10.30;99.90;;;;;;4941711;28;20176;-86
2024/03/23 01:36:58;;;;;;;6.43;4.00;;;10.30;99.90;;;;;;4939779;28;20203;-86
2024/03/23 01:39:24;;;;;;;4.27;3.53;;;10.40;99.90;;;;;;4920524;29;20234;-87
2024/03/23 01:41:50;;;;;;;3.80;3.40;;;10.00;99.90;;;;;;4936827;29;20197;-86
2024/03/23 01:44:16;;;;;;;4.33;3.93;;;9.90;99.90;;;;;;4936354;29;21156;-85
2024/03/23 01:46:42;;;;;;;5.78;3.80;;;10.60;99.90;;;;;;4938725;29;20219;-86
2024/03/23 01:49:08;;;;;;;4.80;4.00;;;10.50;99.90;;;;;;4941525;29;20192;-85
2024/03/23 01:51:35;;;;;;;4.35;3.95;;;10.70;99.90;;;;;;4941989;29;20431;-86
2024/03/23 01:54:03;;;;;;;4.20;3.63;;;10.10;99.90;;;;;;4934922;29;20235;-86
2024/03/23 01:56:35;;;;;;;3.67;3.30;;;10.30;99.90;;;;;;4920405;29;20305;-85
2024/03/23 01:59:05;;;;;;;3.88;3.47;;;10.30;99.90;;;;;;4939221;29;20218;-86
2024/03/23 02:01:36;;;;;;;4.53;3.65;;;10.80;99.90;;;;;;4922597;29;20611;-86
2024/03/23 02:04:02;;;;;;;3.92;3.42;;;10.40;99.90;;;;;;4921020;29;20283;-86
2024/03/23 02:06:28;;;;;;;4.20;3.80;;;10.70;99.90;;;;;;4926271;29;20669;-85
2024/03/23 02:08:57;;;;;;;4.20;3.53;;;10.60;99.90;;;;;;4925142;29;20721;-86
2024/03/23 02:11:23;;;;;;;4.13;3.53;;;10.70;99.90;;;;;;4923730;29;20207;-86
2024/03/23 02:13:48;;;;;;;5.80;3.60;;;10.70;99.90;;;;;;4918116;29;20223;-86
2024/03/23 02:16:14;;;;;;;3.80;3.50;;;;;;;;;;4922562;29;20238;-86
2024/03/23 02:18:40;;;;;;;3.53;2.90;;;;;;;;;;4935879;29;20192;-86
2024/03/23 02:21:06;;;;;;;4.22;3.58;;;10.40;99.90;;;;;;4939593;29;20414;-86
2024/03/23 02:23:31;;;;;;;4.73;4.13;;;10.00;99.90;;;;;;4920197;29;20639;-85
2024/03/23 02:25:57;;;;;;;5.13;3.87;;;10.40;99.90;;;;;;4923770;29;20262;-87
2024/03/23 02:28:22;;;;;;;4.77;3.63;;;10.50;99.90;;;;;;4920304;29;20189;-87
2024/03/23 02:30:51;;;;;;;3.57;2.90;;;10.60;99.90;;;;;;4923671;29;20185;-86
2024/03/23 02:33:17;;;;;;;4.03;3.60;;;10.20;99.90;;;;;;4921335;29;20522;-86
2024/03/23 02:35:44;;;;;;;5.17;3.00;;;13.00;99.90;;;;;;4923015;29;20639;-86
2024/03/23 02:38:10;;;;;;;4.80;3.58;;;10.60;99.90;;;;;;4924060;29;20635;-86
2024/03/23 02:40:36;;;;;;;3.63;3.30;;;10.30;99.90;;;;;;4923456;29;20235;-86
2024/03/23 02:43:02;;;;;;;3.72;3.42;;;10.50;99.90;;;;;;4921630;29;20202;-87
2024/03/23 02:45:28;;;;;;;3.50;3.20;;;10.70;99.90;;;;;;4922534;29;20554;-85
2024/03/23 02:47:53;;;;;;;3.47;3.20;;;11.00;99.90;;;;;;4920827;29;20190;-85
2024/03/23 02:50:20;;;;;;;3.53;3.23;;;10.80;99.90;;;;;;4931455;29;20288;-86
2024/03/23 02:52:45;;;;;;;3.90;3.60;;;10.90;99.90;;;;;;4925888;29;20554;-86
2024/03/23 02:55:11;;;;;;;4.27;3.50;;;10.50;99.90;;;;;;4930079;29;20264;-84
2024/03/23 02:57:37;;;;;;;3.30;2.97;;;10.70;99.90;;;;;;4926934;29;20449;-86
2024/03/23 03:00:05;;;;;;;3.17;2.90;;;10.60;99.90;;;;;;4923525;29;20222;-85
2024/03/23 03:02:30;;;;;;;3.22;2.92;;;10.70;99.90;;;;;;4922817;29;20194;-86
2024/03/23 03:04:56;;;;;;;3.40;3.10;;;10.50;99.90;;;;;;4922809;29;20194;-86
2024/03/23 03:07:21;;;;;;;4.27;3.47;;;10.90;99.90;;;;;;4917275;29;20213;-87
2024/03/23 03:09:47;;;;;;;3.60;3.30;;;10.60;99.90;;;;;;4922011;29;20195;-85
2024/03/23 03:12:12;;;;;;;3.60;3.20;;;10.60;99.90;;;;;;4929671;29;20196;-87
2024/03/23 03:14:38;;;;;;;3.70;3.40;;;10.70;99.90;;;;;;4906997;29;20436;-86
2024/03/23 03:17:03;;;;;;;4.83;3.07;;;10.90;99.90;;;;;;4921042;29;20211;-86
2024/03/23 03:19:29;;;;;;;4.13;3.20;;;10.10;99.90;;;;;;4923753;29;20237;-86
2024/03/23 03:21:55;;;;;;;7.10;5.10;;;10.20;99.90;;;;;;4927942;29;20188;-86
2024/03/23 03:24:21;;;;;;;5.50;4.93;;;;;;;;;;4920194;29;20365;-86
2024/03/23 03:26:46;;;;;;;3.23;2.97;;;10.20;99.90;;;;;;4935621;29;20217;-86
2024/03/23 03:29:12;;;;;;;3.20;2.90;;;10.40;99.90;;;;;;4920821;29;20457;-86
2024/03/23 03:31:39;;;;;;;4.00;3.60;;;11.50;99.90;;;;;;4924822;29;20255;-85
2024/03/23 03:34:04;;;;;;;3.38;2.70;;;10.20;99.90;;;;;;4923245;29;20214;-86
2024/03/23 03:36:30;;;;;;;3.80;3.50;;;10.50;99.90;;;;;;4923408;29;20203;-85
2024/03/23 03:38:55;;;;;;;4.93;3.30;;;11.40;99.90;;;;;;4923312;29;20314;-85
2024/03/23 03:41:21;;;;;;;3.93;2.97;;;10.50;99.90;;;;;;4925095;29;20660;-86
2024/03/23 03:43:46;;;;;;;3.33;3.00;;;10.50;99.90;;;;;;4922231;29;20188;-86
2024/03/23 03:46:13;;;;;;;2.87;2.63;;;11.00;99.90;;;;;;4920600;29;20223;-86
2024/03/23 03:48:38;;;;;;;3.28;2.97;;;10.70;99.90;;;;;;4920592;29;20230;-87
2024/03/23 03:51:04;;;;;;;3.03;2.73;;;10.70;99.90;;;;;;4923518;29;20246;-84
2024/03/23 03:53:30;;;;;;;3.37;3.07;;;10.30;99.90;;;;;;4921620;29;20190;-86
2024/03/23 03:55:56;;;;;;;3.20;2.90;;;10.60;99.90;;;;;;4923324;29;20627;-87
2024/03/23 03:58:22;;;;;;;4.40;3.00;;;10.80;99.90;;;;;;4922266;29;20191;-86
2024/03/23 04:00:47;;;;;;;3.70;3.10;;;10.50;99.90;;;;;;4920918;29;20450;-86
2024/03/23 04:03:13;;;;;;;4.37;3.43;;;10.90;99.90;;;;;;4925231;29;20193;-87
2024/03/23 04:05:38;;;;;;;5.90;3.57;;;10.70;99.90;;;;;;4916766;29;20196;-86
2024/03/23 04:08:05;;;;;;;7.97;3.73;;;10.60;99.90;;;;;;4924332;29;20196;-85
2024/03/23 04:10:31;;;;;;;3.95;3.65;;;10.50;99.90;;;;;;4929809;29;20551;-86
2024/03/23 04:12:56;;;;;;;3.60;3.07;;;12.70;99.90;;;;;;4930313;29;20236;-86
2024/03/23 04:15:22;;;;;;;3.10;2.80;;;10.50;99.90;;;;;;4927174;29;20240;-87
2024/03/23 04:17:47;;;;;;;5.63;3.67;;;11.00;99.90;;;;;;4926512;29;20191;-86
2024/03/23 04:20:16;;;;;;;3.33;3.03;;;10.60;99.90;;;;;;4924704;29;21712;-85
2024/03/23 04:22:42;;;;;;;4.55;3.30;;;11.00;99.90;;;;;;4926767;29;20182;-86
2024/03/23 04:25:08;;;;;;;3.80;3.40;;;10.90;99.90;;;;;;4923759;29;20555;-86
2024/03/23 04:27:33;;;;;;;3.60;3.30;;;10.90;99.90;;;;;;4920274;29;20472;-86
2024/03/23 04:30:01;;;;;;;4.50;3.40;;;10.50;99.90;;;;;;4918743;29;20199;-86
2024/03/23 04:32:26;;;;;;;3.15;2.90;;;11.40;99.90;;;;;;4920150;29;20184;-86
2024/03/23 04:34:53;;;;;;;3.83;3.53;;;11.00;99.90;;;;;;4937201;29;20252;-87
2024/03/23 04:37:19;;;;;;;3.65;3.35;;;11.10;99.90;;;;;;4906809;29;20217;-87
2024/03/23 04:39:45;;;;;;;3.60;3.25;;;11.20;99.90;;;;;;4923097;29;20209;-87
2024/03/23 04:42:11;;;;;;;3.17;2.97;;;11.10;99.90;;;;;;4918448;29;20189;-87
2024/03/23 04:44:37;;;;;;;3.60;3.30;;;11.20;99.90;;;;;;4921766;29;20186;-87
2024/03/23 04:47:03;;;;;;;3.60;2.90;;;11.40;99.90;;;;;;4924793;29;20341;-86
2024/03/23 04:49:28;;;;;;;3.73;3.20;;;11.70;99.90;;;;;;4923880;29;20193;-88
2024/03/23 04:51:54;;;;;;;3.23;2.93;;;13.70;99.90;;;;;;4918043;29;20450;-87
2024/03/23 04:54:20;;;;;;;6.30;3.30;;;;;;;;;;4929890;29;20285;-87
2024/03/23 04:56:47;;;;;;;4.60;4.20;;;;;;;;;;4940086;29;20247;-87
2024/03/23 04:59:14;;;;;;;5.50;3.50;;;12.10;99.90;;;;;;4934754;29;20496;-86
2024/03/23 05:01:41;;;;;;;5.10;4.70;;;12.20;99.90;;;;;;4909917;29;20204;-87
2024/03/23 05:04:08;;;;;;;7.82;4.38;;;12.20;99.90;;;;;;4924719;29;20659;-87
2024/03/23 05:06:34;;;;;;;5.22;4.82;;;12.50;99.90;;;;;;4919511;29;20218;-87
2024/03/23 05:09:00;;;;;;;4.72;4.32;;;13.30;99.90;;;;;;4941891;29;20193;-87
2024/03/23 05:11:25;;;;;;;5.90;5.30;;;11.80;99.90;;;;;;4926917;29;20291;-86
2024/03/23 05:13:51;;;;;;;9.77;8.20;;;12.90;99.90;;;;;;4918566;29;20200;-85
2024/03/23 05:16:16;;;;;;;7.97;7.27;;;12.90;99.90;;;;;;4913080;29;20220;-85
2024/03/23 05:18:42;;;;;;;9.70;8.70;;;12.10;99.90;;;;;;4935000;29;20217;-85
2024/03/23 05:21:07;;;;;;;11.70;9.93;;;12.40;99.90;;;;;;4921261;29;21077;-86
2024/03/23 05:23:33;;;;;;;9.10;8.20;;;11.70;99.90;;;;;;4920758;29;20190;-87
2024/03/23 05:25:58;;;;;;;10.83;9.73;;;12.10;99.90;;;;;;4927260;29;20273;-86
2024/03/23 05:28:24;;;;;;;12.40;10.20;;;11.70;99.90;;;;;;4922735;29;20220;-85
2024/03/23 05:30:53;;;;;;;11.90;10.47;;;11.70;99.90;;;;;;4932985;29;20205;-86
2024/03/23 05:33:20;;;;;;;11.60;9.63;;;12.40;99.90;;;;;;4919095;29;20198;-86
2024/03/23 05:35:45;;;;;;;12.25;9.95;;;12.30;99.90;;;;;;4922665;29;20236;-86
2024/03/23 05:38:11;;;;;;;12.23;10.10;;;11.60;99.90;;;;;;4922969;29;20942;-85
2024/03/23 05:40:39;;;;;;;10.90;9.70;;;12.10;99.90;;;;;;4921531;29;20233;-85
2024/03/23 05:43:06;;;;;;;11.60;9.48;;;11.60;99.90;;;;;;4924372;29;20195;-85
2024/03/23 05:45:31;;;;;;;11.30;10.10;;;11.70;99.90;;;;;;4935618;29;20185;-86
2024/03/23 05:47:57;;;;;;;11.00;9.80;;;11.50;99.90;;;;;;4926881;29;20200;-85
2024/03/23 05:50:23;;;;;;;10.63;9.33;;;12.00;99.90;;;;;;4921243;29;21062;-85
2024/03/23 05:52:49;;;;;;;12.23;9.93;;;11.70;99.90;;;;;;4922604;29;20227;-85
2024/03/23 05:55:15;;;;;;;10.70;9.52;;;11.50;99.90;;;;;;4923727;29;20265;-86
2024/03/23 05:57:41;;;;;;;12.70;9.83;;;11.40;99.90;;;;;;4922855;29;20243;-85
2024/03/23 06:00:15;;;;;;;12.20;8.63;;;11.70;99.90;;;;;;4918299;29;20216;-84
2024/03/23 06:02:44;;;;;;;11.60;8.50;;;11.50;99.90;;;;;;4936614;29;20247;-86
2024/03/23 06:05:12;;;;;;;7.60;6.43;;;11.30;99.90;;;;;;4922147;29;20190;-84
2024/03/23 06:07:38;;;;;;;7.57;6.60;;;11.20;99.90;;;;;;4918627;29;20629;-84
2024/03/23 06:10:05;;;;;;;7.40;6.13;;;11.10;99.90;;;;;;4936207;29;20291;-84
2024/03/23 06:12:31;;;;;;;7.65;5.80;;;11.20;99.90;;;;;;4919826;29;20457;-85
2024/03/23 06:14:57;;;;;;;7.45;6.38;;;10.90;99.90;;;;;;4919754;29;20619;-84
2024/03/23 06:17:22;;;;;;;6.60;5.50;;;11.50;99.90;;;;;;4923747;29;20214;-84
2024/03/23 06:19:49;;;;;;;6.43;5.80;;;11.50;99.90;;;;;;4924594;29;20210;-84
2024/03/23 06:22:14;;;;;;;6.45;5.35;;;11.50;99.90;;;;;;4920202;29;20228;-85
2024/03/23 06:24:40;;;;;;;6.10;4.43;;;11.40;99.90;;;;;;4918419;29;20221;-83
2024/03/23 06:27:05;;;;;;;5.10;4.57;;;11.50;99.90;;;;;;4923173;29;20233;-83
2024/03/23 06:29:31;;;;;;;4.60;3.47;;;10.90;99.90;;;;;;4916473;29;20265;-84
2024/03/23 06:31:56;;;;;;;4.30;3.30;;;11.10;99.90;;;;;;4923815;29;20558;-85
2024/03/23 06:34:22;;;;;;;3.43;2.83;;;10.50;99.90;;;;;;4917002;29;20189;-85
2024/03/23 06:36:49;;;;;;;4.22;3.00;;;10.90;99.90;;;;;;4919818;29;20209;-84
2024/03/23 06:39:15;;;;;;;2.50;2.30;;;11.20;99.90;;;;;;4921120;29;21325;-84
2024/03/23 06:42:02;;;;;;;1.60;1.50;;;11.00;99.90;;;;;;4940572;29;20190;-84
2024/03/23 06:44:27;;;;;;;2.03;1.83;;;10.90;99.90;;;;;;4918621;29;20232;-86
2024/03/23 06:46:53;;;;;;;1.10;0.97;;;10.90;99.90;;;;;;4921120;29;20267;-85
2024/03/23 06:49:18;;;;;;;1.43;1.33;;;10.60;99.90;;;;;;4921753;29;20192;-85
2024/03/23 06:51:45;;;;;;;1.60;1.03;;;11.00;99.90;;;;;;4917926;29;20236;-85
2024/03/23 06:54:11;;;;;;;0.75;0.70;;;10.70;99.90;;;;;;4920840;29;20185;-85
2024/03/23 06:56:36;;;;;;;0.67;0.63;;;10.60;99.90;;;;;;4920268;29;20803;-85
2024/03/23 06:59:02;;;;;;;0.70;0.63;;;10.90;99.90;;;;;;4922233;29;20223;-85
2024/03/23 07:01:28;;;;;;;1.20;0.70;;;11.00;99.90;;;;;;4917487;29;20193;-85
2024/03/23 07:03:54;;;;;;;0.80;0.70;;;10.80;99.90;;;;;;4915333;29;20200;-85
2024/03/23 07:06:20;;;;;;;0.90;0.70;;;11.10;99.90;;;;;;4922148;29;20602;-86
2024/03/23 07:08:46;;;;;;;0.80;0.67;;;10.70;99.90;;;;;;4918343;29;20944;-84
2024/03/23 07:11:11;;;;;;;0.70;0.50;;;10.80;99.90;;;;;;4916914;29;20452;-85
2024/03/23 07:13:37;;;;;;;0.70;0.60;;;10.80;99.90;;;;;;4917071;29;20194;-85
2024/03/23 07:16:02;;;;;;;1.37;0.67;;;10.90;99.90;;;;;;4933042;28;20217;-85
2024/03/23 07:18:28;;;;;;;1.00;0.90;;;11.00;99.90;;;;;;4921077;29;20190;-85
2024/03/23 07:20:56;;;;;;;0.80;0.73;;;11.10;99.90;;;;;;4919908;29;20221;-85
2024/03/23 07:23:22;;;;;;;1.08;0.98;;;11.40;99.90;;;;;;4917366;29;20278;-85
2024/03/23 07:26:02;;;;;;;0.70;0.60;;;11.60;99.90;;;;;;4921068;29;20856;-86
2024/03/23 07:28:31;;;;;;;0.73;0.60;;;11.20;99.90;;;;;;4916649;29;20271;-85
2024/03/23 07:31:05;;;;;;;0.80;0.60;;;11.60;99.90;;;;;;4933705;29;20188;-84
2024/03/23 07:33:32;;;;;;;0.70;0.55;;;12.00;99.90;;;;;;4925833;29;20188;-84
2024/03/23 07:35:59;;;;;;;0.70;0.60;;;11.70;99.90;;;;;;4922106;29;20220;-84
2024/03/23 07:38:26;;;;;;;0.80;0.60;;;12.00;99.90;;;;;;4920139;29;20198;-84
2024/03/23 07:41:08;;;;;;;0.70;0.70;;;12.50;99.90;;;;;;4917971;29;20206;-84
2024/03/23 07:43:35;;;;;;;0.70;0.60;;;12.40;99.90;;;;;;4914284;29;21039;-85
2024/03/23 07:46:01;;;;;;;1.00;0.70;;;12.10;99.90;;;;;;4933626;29;20236;-84
2024/03/23 07:48:27;;;;;;;0.83;0.60;;;12.10;99.90;;;;;;4923511;29;20209;-84
2024/03/23 07:51:17;;;;;;;0.70;0.60;;;12.30;99.90;;;;;;4919896;29;20546;-85
2024/03/23 07:53:46;;;;;;;3.30;0.68;;;11.40;99.90;;;;;;4924516;29;20187;-84
2024/03/23 07:56:11;;;;;;;0.80;0.60;;;11.70;99.90;;;;;;4934071;29;20300;-84
2024/03/23 07:58:38;;;;;;;0.70;0.60;;;11.90;99.90;;;;;;4953498;28;20532;-85
2024/03/23 08:01:08;;;;;;;1.33;0.60;;;11.30;99.90;;;;;;4934718;29;20516;-84
2024/03/23 08:03:38;;;;;;;1.70;0.93;;;11.00;99.90;;;;;;4925231;29;20199;-88
2024/03/23 08:06:16;;;;;;;0.73;0.70;;;11.00;99.90;;;;;;4923771;29;20317;-88
2024/03/23 08:08:44;;;;;;;0.77;0.70;;;10.60;99.90;;;;;;4916176;29;20184;-87
2024/03/23 08:11:10;;;;;;;1.30;1.10;;;10.40;99.90;;;;;;4935194;29;20200;-87
2024/03/23 08:13:39;;;;;;;1.23;0.83;;;10.10;99.90;;;;;;4917204;29;20191;-87
2024/03/23 08:16:05;;;;;;;1.15;0.95;;;10.50;99.90;;;;;;4927010;29;20451;-86
2024/03/23 08:18:31;;;;;;;1.20;1.00;;;10.10;99.90;;;;;;4921057;29;20740;-81
2024/03/23 08:21:00;;;;;;;0.90;0.70;;;10.20;99.90;;;;;;4918666;29;20838;-82
2024/03/23 08:23:27;;;;;;;1.45;0.77;;;10.30;99.90;;;;;;4918627;29;20196;-81
2024/03/23 08:25:58;;;;;;;1.27;1.17;;;10.70;99.90;;;;;;4921252;29;20315;-81
2024/03/23 08:28:23;;;;;;;2.13;1.13;;;11.00;99.90;;;;;;4916957;29;20525;-81
2024/03/23 08:30:49;;;;;;;2.07;1.30;;;11.00;99.90;;;;;;4917464;29;20200;-81
2024/03/23 08:33:15;;;;;;;1.07;0.97;;;11.00;99.90;;;;;;4920223;29;20300;-81
2024/03/23 08:35:41;;;;;;;0.80;0.75;;;11.20;99.90;;;;;;4914882;29;20215;-80
2024/03/23 08:38:07;;;;;;;0.97;0.93;;;11.00;99.90;;;;;;4918515;29;20721;-81
2024/03/23 08:40:32;;;;;;;0.80;0.80;;;11.20;99.90;;;;;;4930702;29;20483;-81
2024/03/23 08:42:58;;;;;;;1.33;0.93;;;11.10;99.90;;;;;;4914624;29;20654;-81
2024/03/23 08:45:25;;;;;;;1.80;1.00;;;11.90;99.90;;;;;;4912995;29;20201;-80
2024/03/23 08:47:50;;;;;;;1.55;1.40;;;12.50;99.90;;;;;;4913304;29;21369;-81
2024/03/23 08:50:16;;;;;;;2.70;1.17;;;12.60;99.90;;;;;;4918448;29;20205;-80
2024/03/23 08:52:41;;;;;;;1.70;0.97;;;12.80;99.90;;;;;;4919380;29;20484;-81
2024/03/23 08:55:07;;;;;;;3.57;1.17;;;13.60;99.90;;;;;;4918867;29;20266;-81
2024/03/23 08:57:33;;;;;;;1.38;1.27;;;13.30;99.90;;;;;;4920038;29;20271;-82
2024/03/23 08:59:58;;;;;;;1.87;1.23;;;13.30;99.90;;;;;;4914435;29;20297;-81
2024/03/23 09:02:24;;;;;;;1.60;1.50;;;13.00;99.90;;;;;;4935717;29;20181;-82
2024/03/23 09:04:49;;;;;;;1.23;1.13;;;13.50;99.90;;;;;;4917019;29;20213;-81
2024/03/23 09:07:15;;;;;;;1.10;1.00;;;13.50;98.80;;;;;;4916941;29;20213;-82
2024/03/23 09:09:40;;;;;;;1.60;1.00;;;13.30;98.10;;;;;;4918326;29;20288;-82
2024/03/23 09:12:06;;;;;;;1.47;1.23;;;13.00;98.20;;;;;;4917011;29;20742;-81
2024/03/23 09:14:33;;;;;;;1.25;1.10;;;12.80;99.20;;;;;;4916536;29;20588;-81
2024/03/23 09:16:59;;;;;;;4.82;1.77;;;12.30;99.80;;;;;;4916843;29;20559;-81
2024/03/23 09:19:28;;;;;;;3.20;2.00;;;12.20;99.90;;;;;;4931811;29;20210;-80
2024/03/23 09:21:53;;;;;;;4.22;2.08;;;12.50;99.90;;;;;;4920371;29;20194;-81
2024/03/23 09:24:19;;;;;;;3.87;1.63;;;12.00;99.50;;;;;;4933128;29;20397;-81
2024/03/23 09:26:44;;;;;;;3.50;2.03;;;12.30;99.20;;;;;;4932524;29;20292;-81
2024/03/23 09:29:10;;;;;;;3.60;2.87;;;11.90;98.80;;;;;;4915528;29;20615;-81
2024/03/23 09:31:36;;;;;;;2.90;2.50;;;12.00;97.80;;;;;;4916969;29;20213;-81
2024/03/23 09:34:01;;;;;;;4.63;2.53;;;12.00;98.30;;;;;;4915885;29;20628;-82
2024/03/23 09:36:27;;;;;;;5.63;3.00;;;12.30;98.50;;;;;;4917288;29;20541;-82
2024/03/23 09:38:53;;;;;;;6.60;2.97;;;12.40;96.80;;;;;;4917715;29;20189;-81
2024/03/23 09:41:19;;;;;;;5.88;2.70;;;12.40;94.90;;;;;;4920200;29;20182;-82
2024/03/23 09:43:48;;;;;;;3.15;2.20;;;12.60;94.80;;;;;;4914992;29;20194;-80
2024/03/23 09:46:14;;;;;;;4.18;2.78;;;12.40;91.50;;;;;;4930944;29;20230;-81
2024/03/23 09:48:39;;;;;;;3.42;2.50;;;12.70;92.10;;;;;;4918170;29;20186;-80
2024/03/23 09:51:08;;;;;;;7.17;2.77;;;12.80;92.10;;;;;;4915907;29;20197;-81
2024/03/23 09:53:33;;;;;;;4.65;2.35;;;12.80;91.60;;;;;;4919125;29;20185;-81
2024/03/23 09:55:59;;;;;;;4.07;2.63;;;12.10;90.90;;;;;;4913200;29;20216;-81
2024/03/23 09:58:24;;;;;;;4.67;3.80;;;12.60;91.50;;;;;;4917206;29;20608;-81
2024/03/23 10:00:50;;;;;;;8.40;3.10;;;12.30;90.60;;;;;;4910861;29;20706;-81
2024/03/23 10:03:16;;;;;;;2.90;2.60;;;12.60;89.80;;;;;;4915219;29;20539;-82
2024/03/23 10:05:42;;;;;;;4.30;3.10;;;12.70;88.70;;;;;;4914557;29;20493;-81
2024/03/23 10:08:13;;;;;;;6.75;3.33;;;12.40;88.30;;;;;;4918053;28;20193;-82
2024/03/23 10:10:39;;;;;;;3.90;2.90;;;12.10;89.60;;;;;;4930372;29;20284;-81
2024/03/23 10:13:05;;;;;;;6.00;2.80;;;12.70;90.40;;;;;;4919118;29;20276;-80
2024/03/23 10:15:35;;;;;;;5.10;3.13;;;12.50;88.20;;;;;;4916681;29;20186;-82
2024/03/23 10:18:18;;;;;;;3.35;2.70;;;12.50;89.00;;;;;;4937635;29;20197;-82
2024/03/23 10:20:46;;;;;;;3.70;2.90;;;12.50;90.20;;;;;;4917885;29;21319;-82
2024/03/23 10:23:18;;;;;;;4.03;2.38;;;12.20;90.00;;;;;;4920581;29;20189;-82
2024/03/23 10:25:44;;;;;;;4.95;2.83;;;12.60;90.60;;;;;;4935579;29;20241;-80
2024/03/23 10:28:11;;;;;;;3.67;3.37;;;12.40;90.30;;;;;;4936791;28;20213;-81
2024/03/23 10:30:36;;;;;;;7.07;2.70;;;12.10;90.40;;;;;;4918617;29;20896;-81
2024/03/23 10:33:13;;;;;;;4.10;2.83;;;12.20;91.20;;;;;;4921606;29;20189;-81
2024/03/23 10:35:39;;;;;;;4.57;3.20;;;12.20;90.10;;;;;;4920618;29;20193;-81
2024/03/23 10:38:09;;;;;;;5.30;2.67;;;12.10;90.60;;;;;;4936499;29;20348;-81
2024/03/23 10:40:35;;;;;;;4.63;2.80;;;11.90;89.50;;;;;;4918882;29;21001;-81
2024/03/23 10:43:03;;;;;;;5.35;2.95;;;11.90;90.40;;;;;;4918944;29;20252;-81
2024/03/23 10:45:29;;;;;;;5.70;2.78;;;11.90;89.40;;;;;;4917427;28;20192;-82
2024/03/23 10:47:54;;;;;;;5.30;2.73;;;11.70;89.80;;;;;;4939015;29;20604;-81
2024/03/23 10:50:20;;;;;;;5.43;2.60;;;11.80;91.10;;;;;;4918428;29;20190;-80
2024/03/23 10:52:50;;;;;;;4.73;2.70;;;12.00;92.20;;;;;;4917637;29;20344;-79
2024/03/23 10:55:20;;;;;;;5.13;3.10;;;11.70;92.50;;;;;;4933444;29;20220;-81
2024/03/23 10:57:54;;;;;;;3.45;2.65;;;11.60;93.50;;;;;;4935880;29;20213;-81
2024/03/23 11:00:21;;;;;;;5.30;2.90;;;11.20;95.40;;;;;;4916664;29;20219;-81
2024/03/23 11:02:48;;;;;;;3.47;2.75;;;10.80;98.20;;;;;;4917500;29;20184;-82
2024/03/23 11:05:32;;;;;;;4.90;2.88;;;9.50;99.90;;;;;;4934693;29;20188;-81
2024/03/23 11:07:58;;;;;;;3.13;2.30;;;9.30;99.90;;;;;;4915622;29;20188;-86
2024/03/23 11:10:27;;;;;;;2.20;1.73;;;9.40;99.90;;;;;;4917807;29;20198;-88
2024/03/23 11:12:53;;;;;;;5.00;2.25;;;8.40;99.90;;;;;;4939102;29;20218;-89
2024/03/23 11:15:19;;;;;;;4.10;2.90;;;8.80;99.90;;;;;;4936845;29;20288;-87
2024/03/23 11:18:07;;;;;;;3.25;2.20;;;8.60;99.90;;;;;;4935884;29;20206;-88
2024/03/23 11:20:34;;;;;;;3.75;2.55;;;8.70;99.90;;;;;;4931828;29;20218;-88
2024/03/23 11:23:01;;;;;;;3.30;2.53;;;8.90;99.90;;;;;;4918425;29;20565;-87
2024/03/23 11:25:27;;;;;;;4.40;3.53;;;9.50;99.90;;;;;;4920679;29;20226;-87
2024/03/23 11:27:54;;;;;;;2.17;1.80;;;9.80;99.90;;;;;;4919646;29;20566;-87
2024/03/23 11:30:24;;;;;;;3.45;2.20;;;9.50;99.90;;;;;;4919975;29;20187;-86
2024/03/23 11:32:53;;;;;;;2.95;2.40;;;9.70;99.90;;;;;;4919827;29;20219;-88
2024/03/23 11:35:37;;;;;;;2.20;1.83;;;10.70;99.90;;;;;;4923350;29;20759;-89
2024/03/23 11:38:14;;;;;;;2.35;2.00;;;10.50;99.90;;;;;;4930743;29;20722;-88
2024/03/23 11:40:40;;;;;;;4.78;2.25;;;10.90;99.90;;;;;;4914506;29;20686;-87
2024/03/23 11:43:11;;;;;;;3.83;2.45;;;11.20;99.90;;;;;;4915028;29;20200;-87
2024/03/23 11:45:44;;;;;;;3.58;1.88;;;11.40;99.90;;;;;;4914228;29;20185;-88
2024/03/23 11:48:20;;;;;;;2.63;1.60;;;12.60;99.90;;;;;;4925431;29;20193;-88
2024/03/23 11:50:50;;;;;;;1.50;1.40;;;13.40;97.30;;;;;;4931757;29;20189;-87
2024/03/23 11:53:21;;;;;;;3.38;1.77;;;13.30;94.00;;;;;;4915039;29;20240;-88
2024/03/23 11:55:57;;;;;;;2.20;1.80;;;13.00;94.80;;;;;;4917520;29;20216;-88
2024/03/23 11:58:24;;;;;;;3.08;1.80;;;13.20;95.00;;;;;;4915028;29;20603;-87
2024/03/23 12:00:52;;;;;;;4.78;2.03;;;12.80;95.00;;;;;;4920056;29;20228;-87
2024/03/23 12:03:21;;;;;;;4.00;1.60;;;13.10;94.20;;;;;;4916627;29;20183;-87
2024/03/23 12:05:53;;;;;;;3.47;1.70;;;13.00;94.20;;;;;;4920918;29;20206;-87
2024/03/23 12:08:20;;;;;;;3.25;1.20;;;12.70;92.60;;;;;;4915066;29;20357;-87
2024/03/23 12:10:51;;;;;;;3.28;1.38;;;12.40;93.60;;;;;;4915873;29;20198;-87
2024/03/23 12:13:21;;;;;;;2.15;1.48;;;12.40;91.70;;;;;;4917367;29;20510;-87
2024/03/23 12:15:49;;;;;;;3.08;1.20;;;12.70;92.50;;;;;;4917851;29;20631;-87
2024/03/23 12:18:15;;;;;;;4.30;1.42;;;12.80;92.60;;;;;;4914968;29;20737;-86
2024/03/23 12:20:40;;;;;;;3.73;1.40;;;12.00;91.10;;;;;;4921917;29;20245;-87
2024/03/23 12:23:12;;;;;;;2.60;1.40;;;12.30;91.30;;;;;;4914822;29;20276;-86
2024/03/23 12:25:39;;;;;;;4.05;1.55;;;12.10;91.20;;;;;;4918519;28;20193;-87
2024/03/23 12:28:08;;;;;;;2.20;1.40;;;12.20;91.30;;;;;;4916485;29;20192;-86
2024/03/23 12:30:39;;;;;;;2.88;2.10;;;12.20;90.70;;;;;;4930607;29;20198;-86
2024/03/23 12:33:05;;;;;;;4.18;1.90;;;12.30;91.30;;;;;;4910504;29;20198;-87
2024/03/23 12:35:31;;;;;;;4.20;1.52;;;12.20;90.20;;;;;;4914895;29;20792;-87
2024/03/23 12:37:57;;;;;;;8.33;2.03;;;12.20;88.00;;;;;;4920357;29;20240;-87
2024/03/23 12:40:23;;;;;;;4.15;1.30;;;12.40;88.80;;;;;;4913959;29;20275;-87
2024/03/23 12:42:48;;;;;;;4.10;2.20;;;12.70;89.80;;;;;;4932790;29;20190;-87
2024/03/23 12:45:14;;;;;;;4.60;2.30;;;12.10;89.60;;;;;;4911935;29;20193;-87
2024/03/23 12:47:40;;;;;;;3.50;3.20;;;11.90;88.50;;;;;;4917258;29;20707;-87